sensor_id;sensor_type;location;lat;lon;timestamp;temperature;humidity
10980;DHT22;5543;51.734;8.744;2022-08-11T00:02:26;16.00;99.90
10980;DHT22;5543;51.734;8.744;2022-08-11T00:04:56;16.00;99.90
10980;DHT22;5543;51.734;8.744;2022-08-11T00:07:28;16.10;99.90
10980;DHT22;5543;51.734;8.744;2022-08-11T00:09:57;16.10;99.90
10980;DHT22;5543;51.734;8.744;2022-08-11T00:12:26;16.10;99.90
10980;DHT22;5543;51.734;8.744;2022-08-11T00:14:57;16.10;99.90
10980;DHT22;5543;51.734;8.744;2022-08-11T00:17:30;16.20;99.90
10980;DHT22;5543;51.734;8.744;2022-08-11T00:20:05;16.20;99.90
10980;DHT22;5543;51.734;8.744;2022-08-11T00:22:44;16.20;99.90
10980;DHT22;5543;51.734;8.744;2022-08-11T00:25:15;16.20;99.90
10980;DHT22;5543;51.734;8.744;2022-08-11T00:27:44;16.20;99.90
10980;DHT22;5543;51.734;8.744;2022-08-11T00:30:14;16.30;99.90
10980;DHT22;5543;51.734;8.744;2022-08-11T00:32:54;16.30;99.90
10980;DHT22;5543;51.734;8.744;2022-08-11T00:35:28;16.30;99.90
10980;DHT22;5543;51.734;8.744;2022-08-11T00:38:22;16.30;99.90
10980;DHT22;5543;51.734;8.744;2022-08-11T00:40:56;16.40;99.90
10980;DHT22;5543;51.734;8.744;2022-08-11T00:43:39;16.40;99.90
10980;DHT22;5543;51.734;8.744;2022-08-11T00:46:13;16.40;99.90
10980;DHT22;5543;51.734;8.744;2022-08-11T00:48:55;16.40;99.90
10980;DHT22;5543;51.734;8.744;2022-08-11T00:51:46;16.40;99.90
10980;DHT22;5543;51.734;8.744;2022-08-11T00:54:57;16.40;99.90
10980;DHT22;5543;51.734;8.744;2022-08-11T01:00:33;16.30;99.90
10980;DHT22;5543;51.734;8.744;2022-08-11T01:03:18;16.30;99.90
10980;DHT22;5543;51.734;8.744;2022-08-11T01:06:24;16.30;99.90
10980;DHT22;5543;51.734;8.744;2022-08-11T01:09:19;16.30;99.90
10980;DHT22;5543;51.734;8.744;2022-08-11T01:15:27;16.00;99.90
10980;DHT22;5543;51.734;8.744;2022-08-11T01:22:03;15.90;99.90
10980;DHT22;5543;51.734;8.744;2022-08-11T01:41:12;15.60;99.90
10980;DHT22;5543;51.734;8.744;2022-08-11T01:44:03;15.60;99.90
10980;DHT22;5543;51.734;8.744;2022-08-11T01:46:55;15.60;99.90
10980;DHT22;5543;51.734;8.744;2022-08-11T01:49:29;15.50;99.90
10980;DHT22;5543;51.734;8.744;2022-08-11T01:52:21;15.40;99.90
10980;DHT22;5543;51.734;8.744;2022-08-11T01:55:11;15.40;99.90
10980;DHT22;5543;51.734;8.744;2022-08-11T01:57:44;15.40;99.90
10980;DHT22;5543;51.734;8.744;2022-08-11T02:00:18;15.40;99.90
10980;DHT22;5543;51.734;8.744;2022-08-11T02:02:52;15.30;99.90
10980;DHT22;5543;51.734;8.744;2022-08-11T02:05:39;15.20;99.90
10980;DHT22;5543;51.734;8.744;2022-08-11T02:08:23;15.20;99.90
10980;DHT22;5543;51.734;8.744;2022-08-11T02:11:09;15.20;99.90
10980;DHT22;5543;51.734;8.744;2022-08-11T02:14:18;15.10;99.90
10980;DHT22;5543;51.734;8.744;2022-08-11T02:16:58;15.10;99.90
10980;DHT22;5543;51.734;8.744;2022-08-11T02:19:40;15.10;99.90
10980;DHT22;5543;51.734;8.744;2022-08-11T02:22:34;15.00;99.90
10980;DHT22;5543;51.734;8.744;2022-08-11T02:25:30;15.00;99.90
10980;DHT22;5543;51.734;8.744;2022-08-11T02:28:04;15.00;99.90
10980;DHT22;5543;51.734;8.744;2022-08-11T02:30:39;14.90;99.90
10980;DHT22;5543;51.734;8.744;2022-08-11T02:33:15;14.90;99.90
10980;DHT22;5543;51.734;8.744;2022-08-11T02:35:59;14.90;99.90
10980;DHT22;5543;51.734;8.744;2022-08-11T02:38:37;14.90;99.90
10980;DHT22;5543;51.734;8.744;2022-08-11T02:41:13;14.80;99.90
10980;DHT22;5543;51.734;8.744;2022-08-11T02:44:15;14.80;99.90
10980;DHT22;5543;51.734;8.744;2022-08-11T02:46:58;14.80;99.90
10980;DHT22;5543;51.734;8.744;2022-08-11T02:49:39;14.80;99.90
10980;DHT22;5543;51.734;8.744;2022-08-11T02:52:40;14.80;99.90
10980;DHT22;5543;51.734;8.744;2022-08-11T02:55:20;14.80;99.90
10980;DHT22;5543;51.734;8.744;2022-08-11T02:58:13;14.70;99.90
10980;DHT22;5543;51.734;8.744;2022-08-11T03:00:51;14.60;99.90
10980;DHT22;5543;51.734;8.744;2022-08-11T03:03:25;14.60;99.90
10980;DHT22;5543;51.734;8.744;2022-08-11T03:06:06;14.50;99.90
10980;DHT22;5543;51.734;8.744;2022-08-11T03:08:50;14.60;99.90
10980;DHT22;5543;51.734;8.744;2022-08-11T03:11:41;14.60;99.90
10980;DHT22;5543;51.734;8.744;2022-08-11T03:14:36;14.50;99.90
10980;DHT22;5543;51.734;8.744;2022-08-11T03:17:29;14.60;99.90
10980;DHT22;5543;51.734;8.744;2022-08-11T03:20:10;14.60;99.90
10980;DHT22;5543;51.734;8.744;2022-08-11T03:22:51;14.60;99.90
10980;DHT22;5543;51.734;8.744;2022-08-11T03:25:28;14.60;99.90
10980;DHT22;5543;51.734;8.744;2022-08-11T03:28:03;14.60;99.90
10980;DHT22;5543;51.734;8.744;2022-08-11T03:30:42;14.60;99.90
10980;DHT22;5543;51.734;8.744;2022-08-11T03:33:22;14.50;99.90
10980;DHT22;5543;51.734;8.744;2022-08-11T03:36:20;14.50;99.90
10980;DHT22;5543;51.734;8.744;2022-08-11T03:39:04;14.50;99.90
10980;DHT22;5543;51.734;8.744;2022-08-11T03:41:37;14.50;99.90
10980;DHT22;5543;51.734;8.744;2022-08-11T03:47:44;14.50;99.90
10980;DHT22;5543;51.734;8.744;2022-08-11T03:50:38;14.40;99.90
10980;DHT22;5543;51.734;8.744;2022-08-11T03:53:43;14.40;99.90
10980;DHT22;5543;51.734;8.744;2022-08-11T04:02:36;14.20;99.90
10980;DHT22;5543;51.734;8.744;2022-08-11T04:05:33;14.20;99.90
10980;DHT22;5543;51.734;8.744;2022-08-11T04:08:42;14.20;99.90
10980;DHT22;5543;51.734;8.744;2022-08-11T04:11:42;14.20;99.90
10980;DHT22;5543;51.734;8.744;2022-08-11T04:17:47;14.10;99.90
10980;DHT22;5543;51.734;8.744;2022-08-11T04:27:16;14.10;99.90
10980;DHT22;5543;51.734;8.744;2022-08-11T04:30:00;14.10;99.90
10980;DHT22;5543;51.734;8.744;2022-08-11T04:32:47;14.10;99.90
10980;DHT22;5543;51.734;8.744;2022-08-11T04:35:29;14.10;99.90
10980;DHT22;5543;51.734;8.744;2022-08-11T04:41:19;14.10;99.90
10980;DHT22;5543;51.734;8.744;2022-08-11T04:44:15;14.10;99.90
10980;DHT22;5543;51.734;8.744;2022-08-11T04:50:30;14.20;99.90
10980;DHT22;5543;51.734;8.744;2022-08-11T04:53:49;14.20;99.90
10980;DHT22;5543;51.734;8.744;2022-08-11T04:56:39;14.20;99.90
10980;DHT22;5543;51.734;8.744;2022-08-11T05:00:03;14.20;99.90
10980;DHT22;5543;51.734;8.744;2022-08-11T05:03:10;14.20;99.90
10980;DHT22;5543;51.734;8.744;2022-08-11T05:06:04;14.30;99.90
10980;DHT22;5543;51.734;8.744;2022-08-11T05:08:53;14.30;99.90
10980;DHT22;5543;51.734;8.744;2022-08-11T05:11:52;14.40;99.90
10980;DHT22;5543;51.734;8.744;2022-08-11T05:14:35;14.40;99.90
10980;DHT22;5543;51.734;8.744;2022-08-11T05:17:29;14.50;99.90
10980;DHT22;5543;51.734;8.744;2022-08-11T05:20:18;14.50;99.90
10980;DHT22;5543;51.734;8.744;2022-08-11T05:23:06;14.60;99.90
10980;DHT22;5543;51.734;8.744;2022-08-11T05:25:55;14.70;99.90
10980;DHT22;5543;51.734;8.744;2022-08-11T05:29:04;14.70;99.90
10980;DHT22;5543;51.734;8.744;2022-08-11T05:32:12;14.80;99.90
10980;DHT22;5543;51.734;8.744;2022-08-11T05:35:02;14.90;99.90
10980;DHT22;5543;51.734;8.744;2022-08-11T05:37:37;15.00;99.90
10980;DHT22;5543;51.734;8.744;2022-08-11T05:40:10;15.10;99.90
10980;DHT22;5543;51.734;8.744;2022-08-11T05:42:58;15.20;99.90
10980;DHT22;5543;51.734;8.744;2022-08-11T05:45:44;15.30;99.90
10980;DHT22;5543;51.734;8.744;2022-08-11T05:48:42;15.40;99.90
10980;DHT22;5543;51.734;8.744;2022-08-11T05:51:33;15.50;99.90
10980;DHT22;5543;51.734;8.744;2022-08-11T05:54:23;15.60;99.90
10980;DHT22;5543;51.734;8.744;2022-08-11T05:57:18;15.80;99.90
10980;DHT22;5543;51.734;8.744;2022-08-11T06:00:09;15.90;99.90
10980;DHT22;5543;51.734;8.744;2022-08-11T06:02:41;16.00;99.90
10980;DHT22;5543;51.734;8.744;2022-08-11T06:05:12;16.10;99.90
10980;DHT22;5543;51.734;8.744;2022-08-11T06:07:41;16.20;99.90
10980;DHT22;5543;51.734;8.744;2022-08-11T06:10:25;16.30;99.90
10980;DHT22;5543;51.734;8.744;2022-08-11T06:12:54;16.50;99.90
10980;DHT22;5543;51.734;8.744;2022-08-11T06:15:24;16.60;99.90
10980;DHT22;5543;51.734;8.744;2022-08-11T06:17:54;16.70;99.90
10980;DHT22;5543;51.734;8.744;2022-08-11T06:20:24;17.00;99.90
10980;DHT22;5543;51.734;8.744;2022-08-11T06:22:58;17.20;99.90
10980;DHT22;5543;51.734;8.744;2022-08-11T06:25:32;17.60;99.90
10980;DHT22;5543;51.734;8.744;2022-08-11T06:28:03;18.00;99.90
10980;DHT22;5543;51.734;8.744;2022-08-11T06:30:35;18.40;98.70
10980;DHT22;5543;51.734;8.744;2022-08-11T06:33:08;18.60;99.60
10980;DHT22;5543;51.734;8.744;2022-08-11T06:35:47;18.90;99.90
10980;DHT22;5543;51.734;8.744;2022-08-11T06:38:37;19.00;99.60
10980;DHT22;5543;51.734;8.744;2022-08-11T06:41:17;19.20;98.10
10980;DHT22;5543;51.734;8.744;2022-08-11T06:44:14;19.40;97.80
10980;DHT22;5543;51.734;8.744;2022-08-11T06:46:45;19.60;97.30
10980;DHT22;5543;51.734;8.744;2022-08-11T06:49:16;19.80;97.10
10980;DHT22;5543;51.734;8.744;2022-08-11T06:52:06;20.00;97.70
10980;DHT22;5543;51.734;8.744;2022-08-11T06:54:55;20.10;97.90
10980;DHT22;5543;51.734;8.744;2022-08-11T06:57:34;20.20;97.30
10980;DHT22;5543;51.734;8.744;2022-08-11T07:00:21;20.40;96.50
10980;DHT22;5543;51.734;8.744;2022-08-11T07:03:02;20.60;96.70
10980;DHT22;5543;51.734;8.744;2022-08-11T07:05:40;20.80;96.40
10980;DHT22;5543;51.734;8.744;2022-08-11T07:08:31;21.00;94.20
10980;DHT22;5543;51.734;8.744;2022-08-11T07:14:48;21.50;91.40
10980;DHT22;5543;51.734;8.744;2022-08-11T07:17:40;21.80;92.40
10980;DHT22;5543;51.734;8.744;2022-08-11T07:20:10;21.90;90.80
10980;DHT22;5543;51.734;8.744;2022-08-11T07:22:58;22.10;91.30
10980;DHT22;5543;51.734;8.744;2022-08-11T07:25:51;22.30;90.90
10980;DHT22;5543;51.734;8.744;2022-08-11T07:28:41;22.50;90.90
10980;DHT22;5543;51.734;8.744;2022-08-11T07:31:33;22.70;87.60
10980;DHT22;5543;51.734;8.744;2022-08-11T07:34:16;22.80;88.20
10980;DHT22;5543;51.734;8.744;2022-08-11T07:36:50;23.00;86.70
10980;DHT22;5543;51.734;8.744;2022-08-11T07:39:21;23.10;88.20
10980;DHT22;5543;51.734;8.744;2022-08-11T07:41:53;23.30;84.90
10980;DHT22;5543;51.734;8.744;2022-08-11T07:44:23;23.40;80.20
10980;DHT22;5543;51.734;8.744;2022-08-11T07:47:01;23.60;78.70
10980;DHT22;5543;51.734;8.744;2022-08-11T07:49:48;23.80;80.50
10980;DHT22;5543;51.734;8.744;2022-08-11T07:52:35;24.00;79.70
10980;DHT22;5543;51.734;8.744;2022-08-11T07:55:11;24.20;78.60
10980;DHT22;5543;51.734;8.744;2022-08-11T07:57:43;24.40;81.40
10980;DHT22;5543;51.734;8.744;2022-08-11T08:00:48;24.50;80.90
10980;DHT22;5543;51.734;8.744;2022-08-11T08:03:47;24.70;77.90
10980;DHT22;5543;51.734;8.744;2022-08-11T08:06:33;24.80;76.50
10980;DHT22;5543;51.734;8.744;2022-08-11T08:09:21;25.00;76.30
10980;DHT22;5543;51.734;8.744;2022-08-11T08:12:07;25.20;77.10
10980;DHT22;5543;51.734;8.744;2022-08-11T08:14:55;25.40;73.00
10980;DHT22;5543;51.734;8.744;2022-08-11T08:17:42;25.50;71.10
10980;DHT22;5543;51.734;8.744;2022-08-11T08:20:41;25.80;70.30
10980;DHT22;5543;51.734;8.744;2022-08-11T08:23:12;26.10;69.30
10980;DHT22;5543;51.734;8.744;2022-08-11T08:25:43;26.30;67.40
10980;DHT22;5543;51.734;8.744;2022-08-11T08:28:15;26.50;69.30
10980;DHT22;5543;51.734;8.744;2022-08-11T08:30:46;26.70;64.20
10980;DHT22;5543;51.734;8.744;2022-08-11T08:33:20;27.00;68.20
10980;DHT22;5543;51.734;8.744;2022-08-11T08:35:51;27.20;71.00
10980;DHT22;5543;51.734;8.744;2022-08-11T08:38:39;27.40;67.90
10980;DHT22;5543;51.734;8.744;2022-08-11T08:41:08;27.60;68.00
10980;DHT22;5543;51.734;8.744;2022-08-11T08:43:44;27.60;63.30
10980;DHT22;5543;51.734;8.744;2022-08-11T08:46:19;28.00;60.00
10980;DHT22;5543;51.734;8.744;2022-08-11T08:48:49;28.20;60.80
10980;DHT22;5543;51.734;8.744;2022-08-11T08:51:21;28.40;60.30
10980;DHT22;5543;51.734;8.744;2022-08-11T08:54:24;28.70;62.90
10980;DHT22;5543;51.734;8.744;2022-08-11T08:56:55;29.00;59.40
10980;DHT22;5543;51.734;8.744;2022-08-11T08:59:25;29.20;56.70
10980;DHT22;5543;51.734;8.744;2022-08-11T09:02:17;29.30;56.20
10980;DHT22;5543;51.734;8.744;2022-08-11T09:05:01;29.70;57.20
10980;DHT22;5543;51.734;8.744;2022-08-11T09:07:31;30.00;55.40
10980;DHT22;5543;51.734;8.744;2022-08-11T09:10:07;30.20;53.30
10980;DHT22;5543;51.734;8.744;2022-08-11T09:12:38;30.40;55.70
10980;DHT22;5543;51.734;8.744;2022-08-11T09:15:08;30.60;54.90
10980;DHT22;5543;51.734;8.744;2022-08-11T09:17:41;30.70;52.70
10980;DHT22;5543;51.734;8.744;2022-08-11T09:20:14;30.90;53.10
10980;DHT22;5543;51.734;8.744;2022-08-11T09:22:45;31.20;52.80
10980;DHT22;5543;51.734;8.744;2022-08-11T09:25:54;31.50;55.20
10980;DHT22;5543;51.734;8.744;2022-08-11T09:28:42;31.80;50.60
10980;DHT22;5543;51.734;8.744;2022-08-11T09:31:11;32.10;50.50
10980;DHT22;5543;51.734;8.744;2022-08-11T09:33:42;32.30;47.30
10980;DHT22;5543;51.734;8.744;2022-08-11T09:36:12;32.40;49.60
10980;DHT22;5543;51.734;8.744;2022-08-11T09:38:59;32.60;46.90
10980;DHT22;5543;51.734;8.744;2022-08-11T09:41:59;32.80;44.20
10980;DHT22;5543;51.734;8.744;2022-08-11T09:44:31;33.00;46.10
10980;DHT22;5543;51.734;8.744;2022-08-11T09:47:18;33.20;44.50
10980;DHT22;5543;51.734;8.744;2022-08-11T09:49:54;33.40;44.70
10980;DHT22;5543;51.734;8.744;2022-08-11T09:52:28;33.70;44.90
10980;DHT22;5543;51.734;8.744;2022-08-11T09:54:57;34.00;42.00
10980;DHT22;5543;51.734;8.744;2022-08-11T09:57:26;34.10;44.80
10980;DHT22;5543;51.734;8.744;2022-08-11T10:00:13;34.10;42.40
10980;DHT22;5543;51.734;8.744;2022-08-11T10:02:44;34.30;40.20
10980;DHT22;5543;51.734;8.744;2022-08-11T10:05:17;34.30;39.70
10980;DHT22;5543;51.734;8.744;2022-08-11T10:08:05;34.70;42.10
10980;DHT22;5543;51.734;8.744;2022-08-11T10:10:36;35.20;42.80
10980;DHT22;5543;51.734;8.744;2022-08-11T10:13:08;35.30;39.90
10980;DHT22;5543;51.734;8.744;2022-08-11T10:15:59;35.70;40.80
10980;DHT22;5543;51.734;8.744;2022-08-11T10:18:47;36.00;40.00
10980;DHT22;5543;51.734;8.744;2022-08-11T10:21:27;36.40;39.40
10980;DHT22;5543;51.734;8.744;2022-08-11T10:23:58;36.60;40.20
10980;DHT22;5543;51.734;8.744;2022-08-11T10:26:46;36.80;39.40
10980;DHT22;5543;51.734;8.744;2022-08-11T10:29:23;36.90;35.70
10980;DHT22;5543;51.734;8.744;2022-08-11T10:32:19;37.20;35.70
10980;DHT22;5543;51.734;8.744;2022-08-11T10:35:24;37.70;35.90
10980;DHT22;5543;51.734;8.744;2022-08-11T10:37:55;37.70;37.20
10980;DHT22;5543;51.734;8.744;2022-08-11T10:40:36;37.80;36.90
10980;DHT22;5543;51.734;8.744;2022-08-11T10:43:06;38.00;36.60
10980;DHT22;5543;51.734;8.744;2022-08-11T10:45:41;37.80;34.70
10980;DHT22;5543;51.734;8.744;2022-08-11T10:48:31;38.10;34.00
10980;DHT22;5543;51.734;8.744;2022-08-11T10:51:02;38.10;34.90
10980;DHT22;5543;51.734;8.744;2022-08-11T10:54:03;38.30;36.70
10980;DHT22;5543;51.734;8.744;2022-08-11T10:56:49;38.40;34.20
10980;DHT22;5543;51.734;8.744;2022-08-11T10:59:35;38.30;33.20
10980;DHT22;5543;51.734;8.744;2022-08-11T11:02:04;38.10;32.90
10980;DHT22;5543;51.734;8.744;2022-08-11T11:04:38;38.10;33.50
10980;DHT22;5543;51.734;8.744;2022-08-11T11:07:20;37.90;33.00
10980;DHT22;5543;51.734;8.744;2022-08-11T11:09:55;38.00;35.10
10980;DHT22;5543;51.734;8.744;2022-08-11T11:12:26;38.00;34.70
10980;DHT22;5543;51.734;8.744;2022-08-11T11:15:29;37.90;34.90
10980;DHT22;5543;51.734;8.744;2022-08-11T11:18:27;38.20;34.30
10980;DHT22;5543;51.734;8.744;2022-08-11T11:21:05;38.60;33.80
10980;DHT22;5543;51.734;8.744;2022-08-11T11:23:39;38.50;33.10
10980;DHT22;5543;51.734;8.744;2022-08-11T11:26:42;38.30;32.50
10980;DHT22;5543;51.734;8.744;2022-08-11T11:29:46;38.30;34.60
10980;DHT22;5543;51.734;8.744;2022-08-11T11:32:26;38.60;32.80
10980;DHT22;5543;51.734;8.744;2022-08-11T11:37:50;38.50;31.30
10980;DHT22;5543;51.734;8.744;2022-08-11T11:40:31;38.40;31.00
10980;DHT22;5543;51.734;8.744;2022-08-11T11:43:01;38.30;31.80
10980;DHT22;5543;51.734;8.744;2022-08-11T11:45:29;38.20;32.20
10980;DHT22;5543;51.734;8.744;2022-08-11T11:47:59;38.30;32.60
10980;DHT22;5543;51.734;8.744;2022-08-11T11:50:28;38.20;32.90
10980;DHT22;5543;51.734;8.744;2022-08-11T11:53:00;38.40;33.80
10980;DHT22;5543;51.734;8.744;2022-08-11T11:55:29;38.80;32.30
10980;DHT22;5543;51.734;8.744;2022-08-11T11:58:01;38.60;31.00
10980;DHT22;5543;51.734;8.744;2022-08-11T12:00:49;38.50;31.20
10980;DHT22;5543;51.734;8.744;2022-08-11T12:03:36;38.90;31.50
10980;DHT22;5543;51.734;8.744;2022-08-11T12:06:06;38.70;30.50
10980;DHT22;5543;51.734;8.744;2022-08-11T12:08:36;38.20;30.00
10980;DHT22;5543;51.734;8.744;2022-08-11T12:11:06;37.90;33.50
10980;DHT22;5543;51.734;8.744;2022-08-11T12:13:57;37.50;34.10
10980;DHT22;5543;51.734;8.744;2022-08-11T12:16:26;37.20;32.70
10980;DHT22;5543;51.734;8.744;2022-08-11T12:19:03;36.90;34.40
10980;DHT22;5543;51.734;8.744;2022-08-11T12:21:34;36.70;33.10
10980;DHT22;5543;51.734;8.744;2022-08-11T12:24:03;36.10;32.00
10980;DHT22;5543;51.734;8.744;2022-08-11T12:26:56;35.70;33.90
10980;DHT22;5543;51.734;8.744;2022-08-11T12:29:48;35.30;35.30
10980;DHT22;5543;51.734;8.744;2022-08-11T12:32:23;34.70;35.30
10980;DHT22;5543;51.734;8.744;2022-08-11T12:34:52;34.20;36.30
10980;DHT22;5543;51.734;8.744;2022-08-11T12:37:26;33.90;37.90
10980;DHT22;5543;51.734;8.744;2022-08-11T12:39:59;33.50;36.10
10980;DHT22;5543;51.734;8.744;2022-08-11T12:43:08;33.30;36.50
10980;DHT22;5543;51.734;8.744;2022-08-11T12:46:07;33.00;35.90
10980;DHT22;5543;51.734;8.744;2022-08-11T12:48:41;33.00;35.20
10980;DHT22;5543;51.734;8.744;2022-08-11T12:51:33;33.20;38.50
10980;DHT22;5543;51.734;8.744;2022-08-11T12:54:53;33.70;38.70
10980;DHT22;5543;51.734;8.744;2022-08-11T12:57:28;34.70;37.60
10980;DHT22;5543;51.734;8.744;2022-08-11T13:00:16;35.50;33.90
10980;DHT22;5543;51.734;8.744;2022-08-11T13:03:06;36.00;32.60
10980;DHT22;5543;51.734;8.744;2022-08-11T13:05:54;36.50;33.50
10980;DHT22;5543;51.734;8.744;2022-08-11T13:08:24;36.90;32.40
10980;DHT22;5543;51.734;8.744;2022-08-11T13:10:55;37.40;34.40
10980;DHT22;5543;51.734;8.744;2022-08-11T13:13:42;38.40;32.60
10980;DHT22;5543;51.734;8.744;2022-08-11T13:16:22;38.30;30.10
10980;DHT22;5543;51.734;8.744;2022-08-11T13:18:52;38.70;31.70
10980;DHT22;5543;51.734;8.744;2022-08-11T13:21:21;38.70;32.00
10980;DHT22;5543;51.734;8.744;2022-08-11T13:23:52;39.70;29.80
10980;DHT22;5543;51.734;8.744;2022-08-11T13:26:33;40.30;28.80
10980;DHT22;5543;51.734;8.744;2022-08-11T13:29:20;40.50;30.00
10980;DHT22;5543;51.734;8.744;2022-08-11T13:31:51;40.80;31.10
10980;DHT22;5543;51.734;8.744;2022-08-11T13:34:24;40.90;30.50
10980;DHT22;5543;51.734;8.744;2022-08-11T13:36:54;41.20;29.10
10980;DHT22;5543;51.734;8.744;2022-08-11T13:39:24;41.20;28.50
10980;DHT22;5543;51.734;8.744;2022-08-11T13:41:54;40.60;30.90
10980;DHT22;5543;51.734;8.744;2022-08-11T13:44:25;40.30;30.30
10980;DHT22;5543;51.734;8.744;2022-08-11T13:46:57;40.10;30.00
10980;DHT22;5543;51.734;8.744;2022-08-11T13:49:30;39.70;31.10
10980;DHT22;5543;51.734;8.744;2022-08-11T13:51:58;39.60;32.30
10980;DHT22;5543;51.734;8.744;2022-08-11T13:54:30;39.80;31.90
10980;DHT22;5543;51.734;8.744;2022-08-11T13:57:03;39.70;32.60
10980;DHT22;5543;51.734;8.744;2022-08-11T13:59:35;39.60;30.50
10980;DHT22;5543;51.734;8.744;2022-08-11T14:02:21;39.60;30.20
10980;DHT22;5543;51.734;8.744;2022-08-11T14:05:00;39.20;32.80
10980;DHT22;5543;51.734;8.744;2022-08-11T14:07:33;38.60;30.50
10980;DHT22;5543;51.734;8.744;2022-08-11T14:10:04;38.10;32.60
10980;DHT22;5543;51.734;8.744;2022-08-11T14:12:35;37.70;34.00
10980;DHT22;5543;51.734;8.744;2022-08-11T14:15:23;37.50;33.90
10980;DHT22;5543;51.734;8.744;2022-08-11T14:17:56;37.20;34.00
10980;DHT22;5543;51.734;8.744;2022-08-11T14:20:33;36.80;35.80
10980;DHT22;5543;51.734;8.744;2022-08-11T14:23:17;36.80;35.10
10980;DHT22;5543;51.734;8.744;2022-08-11T14:25:46;36.70;36.90
10980;DHT22;5543;51.734;8.744;2022-08-11T14:28:35;36.50;32.70
10980;DHT22;5543;51.734;8.744;2022-08-11T14:31:11;36.20;32.90
10980;DHT22;5543;51.734;8.744;2022-08-11T14:33:43;36.00;34.70
10980;DHT22;5543;51.734;8.744;2022-08-11T14:36:30;35.90;34.40
10980;DHT22;5543;51.734;8.744;2022-08-11T14:39:02;35.70;36.40
10980;DHT22;5543;51.734;8.744;2022-08-11T14:41:31;35.40;37.10
10980;DHT22;5543;51.734;8.744;2022-08-11T14:44:38;35.30;35.00
10980;DHT22;5543;51.734;8.744;2022-08-11T14:47:26;35.20;37.10
10980;DHT22;5543;51.734;8.744;2022-08-11T14:49:56;34.90;37.30
10980;DHT22;5543;51.734;8.744;2022-08-11T14:52:43;35.00;37.10
10980;DHT22;5543;51.734;8.744;2022-08-11T14:55:12;34.80;37.30
10980;DHT22;5543;51.734;8.744;2022-08-11T14:58:00;34.80;35.10
10980;DHT22;5543;51.734;8.744;2022-08-11T15:00:30;34.60;37.90
10980;DHT22;5543;51.734;8.744;2022-08-11T15:02:59;34.50;40.40
10980;DHT22;5543;51.734;8.744;2022-08-11T15:05:38;34.30;39.00
10980;DHT22;5543;51.734;8.744;2022-08-11T15:08:22;34.30;40.50
10980;DHT22;5543;51.734;8.744;2022-08-11T15:11:14;34.20;39.70
10980;DHT22;5543;51.734;8.744;2022-08-11T15:14:02;33.90;39.90
10980;DHT22;5543;51.734;8.744;2022-08-11T15:16:31;33.90;40.30
10980;DHT22;5543;51.734;8.744;2022-08-11T15:19:17;33.70;37.90
10980;DHT22;5543;51.734;8.744;2022-08-11T15:21:48;33.60;39.00
10980;DHT22;5543;51.734;8.744;2022-08-11T15:24:35;33.60;39.90
10980;DHT22;5543;51.734;8.744;2022-08-11T15:27:07;33.60;36.80
10980;DHT22;5543;51.734;8.744;2022-08-11T15:29:54;33.70;37.30
10980;DHT22;5543;51.734;8.744;2022-08-11T15:33:04;33.50;38.80
10980;DHT22;5543;51.734;8.744;2022-08-11T15:35:53;33.40;38.30
10980;DHT22;5543;51.734;8.744;2022-08-11T15:38:43;33.30;37.60
10980;DHT22;5543;51.734;8.744;2022-08-11T15:41:16;33.00;39.70
10980;DHT22;5543;51.734;8.744;2022-08-11T15:44:06;33.00;38.00
10980;DHT22;5543;51.734;8.744;2022-08-11T15:47:16;33.00;38.30
10980;DHT22;5543;51.734;8.744;2022-08-11T15:49:45;32.90;38.10
10980;DHT22;5543;51.734;8.744;2022-08-11T15:52:47;32.50;37.60
10980;DHT22;5543;51.734;8.744;2022-08-11T15:55:17;32.50;38.70
10980;DHT22;5543;51.734;8.744;2022-08-11T15:57:49;32.40;40.00
10980;DHT22;5543;51.734;8.744;2022-08-11T16:00:37;32.40;41.40
10980;DHT22;5543;51.734;8.744;2022-08-11T16:03:34;32.20;37.90
10980;DHT22;5543;51.734;8.744;2022-08-11T16:06:41;32.20;39.20
10980;DHT22;5543;51.734;8.744;2022-08-11T16:09:18;32.30;38.60
10980;DHT22;5543;51.734;8.744;2022-08-11T16:11:48;32.20;38.40
10980;DHT22;5543;51.734;8.744;2022-08-11T16:14:21;32.20;40.20
10980;DHT22;5543;51.734;8.744;2022-08-11T16:17:10;32.20;41.60
10980;DHT22;5543;51.734;8.744;2022-08-11T16:19:40;32.10;41.60
10980;DHT22;5543;51.734;8.744;2022-08-11T16:22:11;31.90;41.70
10980;DHT22;5543;51.734;8.744;2022-08-11T16:24:42;31.80;42.00
10980;DHT22;5543;51.734;8.744;2022-08-11T16:27:36;31.60;42.50
10980;DHT22;5543;51.734;8.744;2022-08-11T16:30:08;31.40;42.00
10980;DHT22;5543;51.734;8.744;2022-08-11T16:32:39;31.20;42.00
10980;DHT22;5543;51.734;8.744;2022-08-11T16:35:10;31.00;41.90
10980;DHT22;5543;51.734;8.744;2022-08-11T16:37:58;30.80;43.20
10980;DHT22;5543;51.734;8.744;2022-08-11T16:40:46;30.60;41.40
10980;DHT22;5543;51.734;8.744;2022-08-11T16:43:17;30.50;42.20
10980;DHT22;5543;51.734;8.744;2022-08-11T16:46:06;30.30;42.70
10980;DHT22;5543;51.734;8.744;2022-08-11T16:48:53;30.10;45.30
10980;DHT22;5543;51.734;8.744;2022-08-11T16:51:22;29.90;42.30
10980;DHT22;5543;51.734;8.744;2022-08-11T16:53:50;29.80;43.80
10980;DHT22;5543;51.734;8.744;2022-08-11T16:56:35;29.60;45.20
10980;DHT22;5543;51.734;8.744;2022-08-11T16:59:07;29.40;45.40
10980;DHT22;5543;51.734;8.744;2022-08-11T17:01:47;29.30;45.80
10980;DHT22;5543;51.734;8.744;2022-08-11T17:04:33;29.10;47.60
10980;DHT22;5543;51.734;8.744;2022-08-11T17:07:26;29.00;47.30
10980;DHT22;5543;51.734;8.744;2022-08-11T17:10:32;28.70;47.20
10980;DHT22;5543;51.734;8.744;2022-08-11T17:13:49;28.50;47.40
10980;DHT22;5543;51.734;8.744;2022-08-11T17:16:31;28.30;47.70
10980;DHT22;5543;51.734;8.744;2022-08-11T17:19:46;28.30;48.20
10980;DHT22;5543;51.734;8.744;2022-08-11T17:22:54;28.20;48.90
10980;DHT22;5543;51.734;8.744;2022-08-11T17:26:07;28.10;48.90
10980;DHT22;5543;51.734;8.744;2022-08-11T17:29:31;28.10;48.90
10980;DHT22;5543;51.734;8.744;2022-08-11T17:32:26;27.90;47.90
10980;DHT22;5543;51.734;8.744;2022-08-11T17:35:46;27.80;47.60
10980;DHT22;5543;51.734;8.744;2022-08-11T17:38:38;27.40;53.90
10980;DHT22;5543;51.734;8.744;2022-08-11T17:41:31;26.80;55.50
10980;DHT22;5543;51.734;8.744;2022-08-11T17:44:35;26.40;57.60
10980;DHT22;5543;51.734;8.744;2022-08-11T17:47:45;26.10;54.10
10980;DHT22;5543;51.734;8.744;2022-08-11T17:51:19;25.90;56.20
10980;DHT22;5543;51.734;8.744;2022-08-11T17:54:09;25.70;55.10
10980;DHT22;5543;51.734;8.744;2022-08-11T17:57:10;25.60;58.10
10980;DHT22;5543;51.734;8.744;2022-08-11T18:00:15;25.50;56.60
10980;DHT22;5543;51.734;8.744;2022-08-11T18:03:00;25.40;55.40
10980;DHT22;5543;51.734;8.744;2022-08-11T18:06:18;25.30;54.70
10980;DHT22;5543;51.734;8.744;2022-08-11T18:09:20;25.20;56.80
10980;DHT22;5543;51.734;8.744;2022-08-11T18:12:37;25.10;56.10
10980;DHT22;5543;51.734;8.744;2022-08-11T18:15:49;25.00;59.10
10980;DHT22;5543;51.734;8.744;2022-08-11T18:18:49;24.90;59.90
10980;DHT22;5543;51.734;8.744;2022-08-11T18:21:47;24.80;59.10
10980;DHT22;5543;51.734;8.744;2022-08-11T18:24:47;24.70;60.30
10980;DHT22;5543;51.734;8.744;2022-08-11T18:27:35;24.60;58.90